Flight Track Log - Related Links

Times and Time Zones

All times are in EDT time to prevent confusion due to time zone crossing. See the JBU24 flight status page for this flight to view local times or setup timezone preferences in your user account.

Time Position Orientation Groundspeed Altitude Reporting Facility
EDT Latitude Longitude Course Direction KTS MPH feet Rate Location/Type
Mon 06:33:13 PM 40.5667 -73.8167 304° West 221 254 3,300  Level New York TRACON
Mon 06:34:00 PM 40.8114 -74.0114 323° Northwest  Level FlightAware Approximate
Mon 06:34:13 PM 40.5500 -73.7333 105° East 269 310 6,600  Level New York TRACON
Mon 06:35:00 PM 40.8695 -74.0958 311° West  Level FlightAware Approximate
Mon 06:35:13 PM 40.6167 -73.6833 30° Northeast 243 280 10,300  Level New York TRACON
Mon 06:36:00 PM 40.9274 -74.1805 316° Northwest  Level FlightAware Approximate
Mon 06:36:13 PM 40.6833 -73.6333 30° Northeast 298 343 11,900  Level New York TRACON
Mon 06:37:00 PM 40.9894 -74.2601 316° Northwest  Level FlightAware Approximate
Mon 06:38:00 PM 41.0472 -74.3445 304° West  Level FlightAware Approximate
Mon 06:38:13 PM 40.8500 -73.6500 356° North 355 409 16,000  Level New York TRACON
Mon 06:40:13 PM 40.9500 -73.8667 301° West 347 399 17,000 333 Climbing New York TRACON
Mon 06:41:13 PM 41.0000 -73.9667 304° West 350 403 17,000  Level New York TRACON
Mon 06:43:43 PM 41.0942 -74.2372 295° West 347 399 17,000  Level New York Center
Mon 06:44:44 PM 41.1425 -74.3583 298° West 347 399 17,000  Level New York Center
Mon 06:45:41 PM 41.1811 -74.4594 297° West 342 394 17,000 50 Level New York Center
Mon 06:46:43 PM 41.2294 -74.5781 298° West 342 394 17,100 1,230 Climbing New York Center
Mon 06:47:43 PM 41.2808 -74.6639 309° West 335 386 19,500 2,319 Climbing New York Center
Mon 06:48:42 PM 41.3397 -74.7667 307° West 339 390 21,700 1,261 Climbing New York Center
Mon 06:49:42 PM 41.4047 -74.8728 309° West 357 411 22,000 149 Climbing New York Center
Mon 06:50:43 PM 41.4700 -74.9764 310° West 363 418 22,000  Level New York Center
Mon 06:51:41 PM 41.5328 -75.0803 309° West 363 418 22,000  Level New York Center
Mon 06:52:42 PM 41.5994 -75.1928 308° West 358 412 22,000  Level New York Center
Mon 06:53:42 PM 41.6603 -75.2939 309° West 358 412 22,000  Level New York Center
Mon 06:54:42 PM 41.7231 -75.3953 310° West 358 412 22,000  Level New York Center
Mon 06:55:43 PM 41.7833 -75.4997 308° West 358 412 22,000  Level New York Center
Mon 06:56:41 PM 41.8478 -75.6044 310° West 358 412 22,000 -250 Level New York Center
Mon 06:57:43 PM 41.9081 -75.7092 308° West 358 412 21,500 -738 Descending New York Center
Mon 06:58:43 PM 41.9661 -75.8139 307° West 358 412 20,500 -1,017 Descending New York Center
Mon 06:59:41 PM 42.0264 -75.9164 308° West 358 412 19,500 -1,017 Descending New York Center
Mon 07:00:41 PM 42.0883 -76.0189 309° West 358 412 18,500 -942 Descending New York Center
Mon 07:01:42 PM 42.1531 -76.1108 314° West 352 405 17,600 -984 Descending New York Center
Mon 07:02:43 PM 42.2439 -76.1294 351° North 319 367 16,500 -1,463 Descending New York Center
Mon 07:03:45 PM 42.3450 -76.1203 North 335 386 14,600 -1,820 Descending Boston Center
Mon 07:04:45 PM 42.4392 -76.1089 North 333 383 12,800 -1,701 Descending Boston Center
Mon 07:05:52 PM 42.5333 -76.0978 North 322 371 11,000 -984 Descending Boston Center
Mon 07:06:53 PM 42.6153 -76.0742 12° North 294 338 10,700 -1,417 Descending Boston Center
Mon 07:07:59 PM 42.7000 -76.0311 20° North 265 305 8,000 -2,220 Descending Boston Center
Mon 07:09:00 PM 42.7678 -75.9983 20° North 266 306 6,000 -2,069 Descending Boston Center
Mon 07:09:55 PM 42.8294 -75.9650 22° Northeast 258 297 4,000 -1,376 Descending Boston Center
Mon 07:10:49 PM 42.8883 -75.9431 15° North 234 269 3,500 -248 Descending Boston Center
Mon 07:11:56 PM 42.9469 -75.9406 North 182 209 3,500 -298 Level Boston Center
Mon 07:12:50 PM 42.9928 -75.9403 360° North 176 203 2,900 -417 Descending Boston Center
Mon 07:13:51 PM 43.0269 -75.9822 318° Northwest 153 176 2,700 -197 Descending Boston Center

Login

Don't have an account? Register now (free) for customized features, flight alerts, and more!